Time;durP1;ratioP1;P1;durP2;ratioP2;P2;SDS_P1;SDS_P2;PMS_P1;PMS_P2;Temp;Humidity;BMP_temperature;BMP_pressure;BME280_temperature;BME280_humidity;BME280_pressure;Samples;Min_cycle;Max_cycle;Signal;HPM_P1;HPM_P2
2023/08/29 00:01:54;;;;;;;2.50;1.50;;;;;;;;;;5056381;28;20123;-59
2023/08/29 00:04:20;;;;;;;3.08;1.98;;;;;;;;;;5049047;28;20055;-60
2023/08/29 00:06:46;;;;;;;1.48;1.30;;;;;;;;;;5043967;28;20071;-60
2023/08/29 00:09:12;;;;;;;3.05;2.03;;;;;;;;;;5057281;28;20475;-59
2023/08/29 00:11:38;;;;;;;3.08;1.65;;;;;;;;;;5042223;28;20293;-60
2023/08/29 00:14:05;;;;;;;2.10;1.20;;;;;;;;;;5047868;28;20226;-60
2023/08/29 00:16:31;;;;;;;2.72;1.65;;;;;;;;;;5045606;28;20507;-60
2023/08/29 00:18:57;;;;;;;2.35;1.58;;;;;;;;;;5054201;28;20650;-60
2023/08/29 00:21:23;;;;;;;3.10;1.75;;;;;;;;;;5044597;28;20045;-60
2023/08/29 00:23:50;;;;;;;4.25;2.22;;;;;;;;;;5055124;28;20050;-59
2023/08/29 00:26:16;;;;;;;2.35;1.63;;;;;;;;;;5056055;28;20206;-59
2023/08/29 00:28:42;;;;;;;2.35;1.60;;;;;;;;;;5065328;28;20044;-59
2023/08/29 00:31:08;;;;;;;2.67;1.80;;;;;;;;;;5056494;28;20033;-60
2023/08/29 00:33:34;;;;;;;4.07;2.10;;;;;;;;;;5064079;28;20395;-59
2023/08/29 00:36:00;;;;;;;2.72;1.73;;;;;;;;;;5050841;28;20192;-59
2023/08/29 00:38:27;;;;;;;2.70;1.60;;;;;;;;;;5054637;28;20315;-60
2023/08/29 00:40:53;;;;;;;2.75;1.80;;;;;;;;;;5048220;28;20072;-60
2023/08/29 00:43:19;;;;;;;3.63;2.05;;;;;;;;;;5038175;28;20254;-60
2023/08/29 00:45:47;;;;;;;3.03;1.52;;;;;;;;;;5038712;28;20455;-60
2023/08/29 00:48:14;;;;;;;2.60;1.80;;;;;;;;;;5062284;28;20051;-59
2023/08/29 00:50:41;;;;;;;4.05;2.05;;;;;;;;;;5046793;28;20530;-60
2023/08/29 00:53:08;;;;;;;5.60;2.25;;;;;;;;;;5048379;28;20222;-59
2023/08/29 00:55:35;;;;;;;2.75;1.90;;;;;;;;;;5046989;28;20143;-59
2023/08/29 00:58:04;;;;;;;4.13;2.08;;;;;;;;;;5057871;28;20519;-59
2023/08/29 01:00:31;;;;;;;2.53;1.90;;;;;;;;;;5044970;28;20037;-60
2023/08/29 01:02:58;;;;;;;3.03;1.70;;;;;;;;;;5054785;28;20453;-58
2023/08/29 01:05:24;;;;;;;3.88;2.05;;;;;;;;;;5050710;28;20415;-60
2023/08/29 01:07:52;;;;;;;3.38;2.03;;;;;;;;;;5065271;28;20294;-59
2023/08/29 01:10:21;;;;;;;2.63;1.83;;;;;;;;;;5057160;28;20488;-60
2023/08/29 01:13:06;;;;;;;3.08;2.00;;;;;;;;;;5062477;28;20052;-60
2023/08/29 01:15:33;;;;;;;2.85;2.13;;;;;;;;;;5056023;28;20656;-59
2023/08/29 01:18:03;;;;;;;2.42;1.67;;;;;;;;;;5056910;28;20411;-60
2023/08/29 01:20:32;;;;;;;3.80;1.92;;;;;;;;;;5056957;28;20234;-59
2023/08/29 01:23:01;;;;;;;4.55;1.60;;;;;;;;;;5056413;28;20106;-59
2023/08/29 01:25:31;;;;;;;2.03;1.80;;;;;;;;;;5044193;28;20109;-60
2023/08/29 01:27:58;;;;;;;2.33;1.63;;;;;;;;;;5051049;28;20759;-57
2023/08/29 01:30:24;;;;;;;2.28;1.80;;;;;;;;;;5060566;28;20055;-59
2023/08/29 01:32:51;;;;;;;2.58;1.80;;;;;;;;;;5064684;28;20061;-60
2023/08/29 01:35:18;;;;;;;3.60;2.28;;;;;;;;;;5060390;28;20258;-59
2023/08/29 01:37:44;;;;;;;2.63;1.80;;;;;;;;;;5061409;28;20137;-59
2023/08/29 01:40:10;;;;;;;2.95;1.85;;;;;;;;;;5051627;28;20090;-59
2023/08/29 01:42:36;;;;;;;3.30;1.83;;;;;;;;;;5051063;28;20224;-59
2023/08/29 01:45:03;;;;;;;4.95;1.90;;;;;;;;;;5063822;28;20053;-59
2023/08/29 01:47:29;;;;;;;5.55;2.50;;;;;;;;;;5049594;28;20260;-59
2023/08/29 01:49:56;;;;;;;4.13;1.98;;;;;;;;;;5040791;28;20112;-59
2023/08/29 01:52:25;;;;;;;2.88;1.70;;;;;;;;;;5048346;28;20558;-59
2023/08/29 01:54:51;;;;;;;3.00;1.70;;;;;;;;;;5053592;28;20498;-59
2023/08/29 01:57:19;;;;;;;2.42;1.20;;;;;;;;;;5045516;28;20195;-59
2023/08/29 01:59:46;;;;;;;3.83;1.80;;;;;;;;;;5047462;28;20523;-59
2023/08/29 02:02:14;;;;;;;1.83;1.27;;;;;;;;;;5041798;28;20108;-58
2023/08/29 02:04:40;;;;;;;2.35;1.75;;;;;;;;;;5052919;28;20294;-59
2023/08/29 02:07:06;;;;;;;7.72;2.45;;;;;;;;;;5048645;28;20063;-58
2023/08/29 02:09:32;;;;;;;4.90;2.30;;;;;;;;;;5060160;28;20487;-59
2023/08/29 02:11:58;;;;;;;4.35;2.05;;;;;;;;;;5062028;28;20385;-61
2023/08/29 02:14:24;;;;;;;3.08;2.05;;;;;;;;;;5053618;28;20045;-59
2023/08/29 02:16:51;;;;;;;3.58;1.45;;;;;;;;;;5056222;28;20526;-59
2023/08/29 02:19:17;;;;;;;3.63;2.15;;;;;;;;;;5060166;28;20039;-59
2023/08/29 02:21:43;;;;;;;3.15;1.92;;;;;;;;;;5056207;28;20032;-59
2023/08/29 02:24:09;;;;;;;2.92;1.77;;;;;;;;;;5048258;28;20096;-59
2023/08/29 02:26:35;;;;;;;2.80;1.65;;;;;;;;;;5060565;28;20259;-59
2023/08/29 02:29:01;;;;;;;5.68;2.40;;;;;;;;;;5058651;28;20115;-59
2023/08/29 02:31:27;;;;;;;3.72;1.88;;;;;;;;;;5053207;28;20516;-59
2023/08/29 02:33:54;;;;;;;3.97;2.30;;;;;;;;;;5053160;28;20074;-60
2023/08/29 02:36:20;;;;;;;2.33;1.85;;;;;;;;;;5053605;28;20032;-59
2023/08/29 02:38:46;;;;;;;3.00;1.90;;;;;;;;;;5064387;28;20220;-60
2023/08/29 02:41:12;;;;;;;4.47;1.98;;;;;;;;;;5054188;28;20207;-60
2023/08/29 02:43:38;;;;;;;2.40;1.83;;;;;;;;;;5044956;28;20583;-60
2023/08/29 02:46:05;;;;;;;3.25;2.00;;;;;;;;;;5067057;28;20525;-60
2023/08/29 02:48:31;;;;;;;2.80;2.03;;;;;;;;;;5057634;28;20106;-60
2023/08/29 02:50:57;;;;;;;2.95;1.67;;;;;;;;;;5049452;28;20050;-60
2023/08/29 02:53:23;;;;;;;3.97;2.10;;;;;;;;;;5054213;28;20480;-60
2023/08/29 02:55:52;;;;;;;1.83;1.38;;;;;;;;;;5057749;28;20495;-59
2023/08/29 02:58:19;;;;;;;2.20;1.50;;;;;;;;;;5041778;28;20159;-60
2023/08/29 03:00:47;;;;;;;1.88;1.33;;;;;;;;;;5048973;28;20051;-61
2023/08/29 03:03:13;;;;;;;3.55;2.20;;;;;;;;;;5043428;28;20067;-61
2023/08/29 03:05:42;;;;;;;2.47;1.85;;;;;;;;;;5041689;28;20566;-61
2023/08/29 03:08:08;;;;;;;2.63;1.48;;;;;;;;;;5053334;28;20496;-60
2023/08/29 03:10:38;;;;;;;2.33;1.50;;;;;;;;;;5042295;28;20072;-60
2023/08/29 03:13:05;;;;;;;2.88;1.40;;;;;;;;;;5051604;28;20588;-59
2023/08/29 03:15:34;;;;;;;2.90;1.60;;;;;;;;;;5056680;28;20051;-58
2023/08/29 03:18:00;;;;;;;2.70;1.30;;;;;;;;;;5058025;28;20040;-60
2023/08/29 03:20:27;;;;;;;3.30;1.75;;;;;;;;;;5052317;28;20231;-60
2023/08/29 03:22:53;;;;;;;2.08;1.30;;;;;;;;;;5032724;28;20366;-60
2023/08/29 03:25:20;;;;;;;1.52;1.17;;;;;;;;;;5042029;28;20275;-59
2023/08/29 03:27:46;;;;;;;2.65;1.48;;;;;;;;;;5049071;28;20194;-58
2023/08/29 03:30:12;;;;;;;2.33;1.52;;;;;;;;;;5062899;28;20063;-59
2023/08/29 03:32:39;;;;;;;2.10;1.20;;;;;;;;;;5046464;28;20413;-59
2023/08/29 03:35:05;;;;;;;2.00;1.20;;;;;;;;;;5048204;28;20264;-59
2023/08/29 03:37:31;;;;;;;2.65;1.38;;;;;;;;;;5041177;28;20184;-59
2023/08/29 03:39:57;;;;;;;3.38;1.20;;;;;;;;;;5048108;28;20033;-58
2023/08/29 03:42:23;;;;;;;1.77;1.13;;;;;;;;;;5041353;28;20381;-59
2023/08/29 03:44:49;;;;;;;1.67;1.23;;;;;;;;;;5050466;28;20061;-59
2023/08/29 03:47:15;;;;;;;4.40;2.17;;;;;;;;;;5055000;28;20364;-58
2023/08/29 03:49:42;;;;;;;1.98;1.40;;;;;;;;;;5050394;28;20496;-59
2023/08/29 03:52:08;;;;;;;3.20;1.30;;;;;;;;;;5055166;28;20264;-59
2023/08/29 03:54:34;;;;;;;3.10;1.95;;;;;;;;;;5060936;28;20510;-59
2023/08/29 03:57:00;;;;;;;1.30;1.10;;;;;;;;;;5052785;28;20136;-59
2023/08/29 03:59:26;;;;;;;2.92;1.20;;;;;;;;;;5022377;28;20102;-59
2023/08/29 04:01:52;;;;;;;3.80;1.08;;;;;;;;;;5045885;28;20124;-59
2023/08/29 04:04:18;;;;;;;1.58;1.20;;;;;;;;;;5048843;28;20571;-60
2023/08/29 04:06:44;;;;;;;2.72;1.38;;;;;;;;;;5050355;28;20123;-59
2023/08/29 04:09:11;;;;;;;6.63;1.30;;;;;;;;;;5042988;28;20120;-59
2023/08/29 04:11:37;;;;;;;2.58;1.45;;;;;;;;;;5041789;28;20303;-59
2023/08/29 04:14:03;;;;;;;2.70;1.25;;;;;;;;;;5052552;28;20041;-60
2023/08/29 04:16:29;;;;;;;1.42;1.10;;;;;;;;;;5053062;28;20520;-59
2023/08/29 04:18:55;;;;;;;1.88;1.45;;;;;;;;;;5048736;28;20487;-57
2023/08/29 04:21:22;;;;;;;2.13;1.45;;;;;;;;;;5049325;28;20482;-59
2023/08/29 04:23:48;;;;;;;8.15;1.80;;;;;;;;;;5048637;28;20101;-59
2023/08/29 04:26:14;;;;;;;1.73;1.10;;;;;;;;;;5051972;28;20052;-59
2023/08/29 04:28:40;;;;;;;2.30;1.33;;;;;;;;;;5064836;28;20158;-59
2023/08/29 04:31:10;;;;;;;2.67;1.55;;;;;;;;;;5051123;28;20078;-59
2023/08/29 04:33:36;;;;;;;2.17;1.42;;;;;;;;;;5049790;28;20036;-59
2023/08/29 04:36:02;;;;;;;2.90;1.20;;;;;;;;;;5046728;28;20745;-59
2023/08/29 04:38:28;;;;;;;1.88;1.15;;;;;;;;;;5050302;28;20235;-60
2023/08/29 04:40:55;;;;;;;4.00;1.35;;;;;;;;;;5042833;28;20033;-59
2023/08/29 04:43:21;;;;;;;2.80;1.38;;;;;;;;;;5043616;28;20116;-59
2023/08/29 04:45:49;;;;;;;1.88;1.27;;;;;;;;;;5047940;28;20582;-59
2023/08/29 04:48:15;;;;;;;2.72;1.27;;;;;;;;;;5064525;28;20539;-59
2023/08/29 04:50:41;;;;;;;2.33;1.35;;;;;;;;;;5055906;28;20094;-58
2023/08/29 04:53:07;;;;;;;2.33;1.67;;;;;;;;;;5062476;28;20073;-59
2023/08/29 04:55:33;;;;;;;2.60;1.13;;;;;;;;;;5055356;28;20048;-59
2023/08/29 04:57:59;;;;;;;1.67;1.10;;;;;;;;;;5062632;28;20097;-59
2023/08/29 05:00:26;;;;;;;4.05;1.60;;;;;;;;;;5054374;28;20094;-60
2023/08/29 05:02:52;;;;;;;2.05;1.45;;;;;;;;;;5040154;28;20364;-59
2023/08/29 05:05:18;;;;;;;2.28;1.10;;;;;;;;;;5055041;28;20123;-60
2023/08/29 05:07:44;;;;;;;6.57;1.30;;;;;;;;;;5052634;28;20528;-60
2023/08/29 05:10:11;;;;;;;2.58;1.05;;;;;;;;;;5045128;28;20535;-60
2023/08/29 05:12:37;;;;;;;3.95;1.48;;;;;;;;;;5054451;28;20047;-59
2023/08/29 05:15:04;;;;;;;1.45;1.23;;;;;;;;;;5053865;28;20141;-60
2023/08/29 05:17:30;;;;;;;1.38;1.05;;;;;;;;;;5050277;28;20041;-60
2023/08/29 05:19:56;;;;;;;1.10;1.00;;;;;;;;;;5054307;28;20206;-59
2023/08/29 05:22:22;;;;;;;1.25;0.70;;;;;;;;;;5056427;28;20070;-59
2023/08/29 05:24:49;;;;;;;2.55;1.17;;;;;;;;;;5050126;28;20732;-60
2023/08/29 05:27:15;;;;;;;2.35;1.20;;;;;;;;;;5064359;28;20535;-59
2023/08/29 05:29:41;;;;;;;2.30;1.20;;;;;;;;;;5058372;28;20072;-60
2023/08/29 05:32:07;;;;;;;1.55;1.00;;;;;;;;;;5061148;28;20048;-61
2023/08/29 05:34:33;;;;;;;1.90;1.00;;;;;;;;;;5059410;28;20655;-61
2023/08/29 05:36:59;;;;;;;1.52;0.80;;;;;;;;;;5058251;28;20282;-59
2023/08/29 05:39:25;;;;;;;2.03;0.80;;;;;;;;;;5053087;28;20454;-59
2023/08/29 05:41:52;;;;;;;0.85;0.70;;;;;;;;;;5038781;28;20652;-60
2023/08/29 05:44:18;;;;;;;1.15;0.73;;;;;;;;;;5041185;28;20044;-59
2023/08/29 05:46:44;;;;;;;1.67;0.82;;;;;;;;;;5041520;28;20186;-59
2023/08/29 05:49:10;;;;;;;0.80;0.80;;;;;;;;;;5042634;28;20192;-59
2023/08/29 05:51:36;;;;;;;0.93;0.63;;;;;;;;;;5053202;28;20209;-59
2023/08/29 05:54:02;;;;;;;1.95;0.90;;;;;;;;;;5038736;28;20636;-59
2023/08/29 05:56:28;;;;;;;1.35;0.77;;;;;;;;;;5036877;28;20097;-58
2023/08/29 05:58:56;;;;;;;1.77;1.05;;;;;;;;;;5045732;28;20184;-60
2023/08/29 06:01:22;;;;;;;0.88;0.75;;;;;;;;;;5040216;28;20188;-59
2023/08/29 06:03:49;;;;;;;1.40;0.90;;;;;;;;;;5047585;28;20078;-59
2023/08/29 06:06:15;;;;;;;1.15;0.80;;;;;;;;;;5050338;28;20041;-59
2023/08/29 06:08:41;;;;;;;0.63;0.57;;;;;;;;;;5053162;28;20582;-59
2023/08/29 06:11:08;;;;;;;1.13;0.80;;;;;;;;;;5052198;28;20412;-59
2023/08/29 06:13:34;;;;;;;1.00;0.70;;;;;;;;;;5056354;28;20031;-59
2023/08/29 06:16:00;;;;;;;0.60;0.60;;;;;;;;;;5048809;28;20209;-59
2023/08/29 06:18:26;;;;;;;1.15;0.60;;;;;;;;;;5052318;28;20072;-59
2023/08/29 06:20:52;;;;;;;0.68;0.60;;;;;;;;;;5051771;28;20534;-58
2023/08/29 06:23:18;;;;;;;1.20;0.63;;;;;;;;;;5054241;28;20155;-60
2023/08/29 06:25:45;;;;;;;0.88;0.50;;;;;;;;;;5062674;28;20032;-58
2023/08/29 06:28:11;;;;;;;1.25;0.82;;;;;;;;;;5058090;28;20584;-60
2023/08/29 06:30:37;;;;;;;3.17;1.23;;;;;;;;;;5058964;28;20393;-60
2023/08/29 06:33:06;;;;;;;1.00;0.63;;;;;;;;;;5051593;28;20044;-60
2023/08/29 06:35:35;;;;;;;1.20;0.60;;;;;;;;;;5055202;28;20202;-59
2023/08/29 06:38:01;;;;;;;1.13;0.60;;;;;;;;;;5056116;28;20393;-60
2023/08/29 06:40:28;;;;;;;1.45;0.70;;;;;;;;;;5056110;28;20591;-59
2023/08/29 06:42:54;;;;;;;1.48;1.10;;;;;;;;;;5059785;28;20048;-59
2023/08/29 06:45:20;;;;;;;1.10;0.80;;;;;;;;;;5047848;28;20572;-59
2023/08/29 06:47:46;;;;;;;1.23;0.80;;;;;;;;;;5051156;28;20278;-59
2023/08/29 06:50:12;;;;;;;2.13;1.23;;;;;;;;;;5047567;28;20496;-60
2023/08/29 06:52:38;;;;;;;1.27;0.65;;;;;;;;;;5049255;28;20040;-59
2023/08/29 06:55:04;;;;;;;2.47;0.98;;;;;;;;;;5051552;28;20352;-59
2023/08/29 06:57:31;;;;;;;0.77;0.50;;;;;;;;;;5049936;28;20045;-61
2023/08/29 06:59:57;;;;;;;1.00;0.73;;;;;;;;;;5034412;28;20484;-59
2023/08/29 07:02:23;;;;;;;0.85;0.60;;;;;;;;;;5042692;28;20200;-59
2023/08/29 07:04:49;;;;;;;1.02;0.65;;;;;;;;;;5047985;28;20124;-61
2023/08/29 07:07:15;;;;;;;1.73;0.70;;;;;;;;;;5060603;28;20051;-60
2023/08/29 07:09:43;;;;;;;1.63;0.88;;;;;;;;;;5040679;28;20643;-60
2023/08/29 07:12:09;;;;;;;1.05;0.60;;;;;;;;;;5060692;28;20037;-60
2023/08/29 07:14:35;;;;;;;1.08;0.80;;;;;;;;;;5065850;28;20040;-59
2023/08/29 07:17:01;;;;;;;2.25;0.85;;;;;;;;;;5057562;28;20037;-60
2023/08/29 07:19:29;;;;;;;1.70;1.10;;;;;;;;;;5054611;28;20052;-59
2023/08/29 07:21:55;;;;;;;1.48;1.13;;;;;;;;;;5059324;28;20036;-60
2023/08/29 07:24:22;;;;;;;1.65;0.90;;;;;;;;;;5054527;28;20214;-59
2023/08/29 07:26:48;;;;;;;1.90;0.70;;;;;;;;;;5055738;28;20052;-59
2023/08/29 07:29:14;;;;;;;0.70;0.70;;;;;;;;;;5059694;28;20191;-59
2023/08/29 07:31:41;;;;;;;0.75;0.65;;;;;;;;;;5061877;28;20087;-60
2023/08/29 07:34:07;;;;;;;1.45;0.93;;;;;;;;;;5056741;28;20298;-60
2023/08/29 07:36:33;;;;;;;1.30;0.60;;;;;;;;;;5054116;28;20040;-60
2023/08/29 07:38:59;;;;;;;1.73;0.50;;;;;;;;;;5055048;28;20133;-60
2023/08/29 07:41:25;;;;;;;1.55;0.80;;;;;;;;;;5052838;28;20045;-59
2023/08/29 07:43:52;;;;;;;1.35;0.68;;;;;;;;;;5046876;28;20071;-59
2023/08/29 07:46:18;;;;;;;2.65;1.00;;;;;;;;;;5059939;28;20120;-58
2023/08/29 07:48:44;;;;;;;1.50;0.98;;;;;;;;;;5046403;28;20126;-59
2023/08/29 07:51:10;;;;;;;1.08;0.50;;;;;;;;;;5056275;28;20040;-59
2023/08/29 07:53:36;;;;;;;1.08;0.70;;;;;;;;;;5049622;28;20260;-60
2023/08/29 07:56:03;;;;;;;0.68;0.60;;;;;;;;;;5049084;28;20052;-59
2023/08/29 07:58:29;;;;;;;1.38;0.70;;;;;;;;;;5044945;28;20503;-60
2023/08/29 08:00:55;;;;;;;1.40;0.65;;;;;;;;;;5049698;28;20040;-60
2023/08/29 08:03:21;;;;;;;0.85;0.70;;;;;;;;;;5048313;28;20036;-59
2023/08/29 08:05:47;;;;;;;0.93;0.57;;;;;;;;;;5048586;28;20430;-60
2023/08/29 08:08:14;;;;;;;1.13;0.70;;;;;;;;;;5048628;28;20062;-60
2023/08/29 08:10:40;;;;;;;1.23;0.50;;;;;;;;;;5055215;28;20044;-59
2023/08/29 08:13:07;;;;;;;0.63;0.50;;;;;;;;;;5048747;28;20575;-60
2023/08/29 08:15:33;;;;;;;1.25;0.60;;;;;;;;;;5056447;28;20123;-60
2023/08/29 08:17:59;;;;;;;1.00;0.82;;;;;;;;;;5053094;28;20047;-60
2023/08/29 08:20:25;;;;;;;0.77;0.55;;;;;;;;;;5058725;28;20457;-60
2023/08/29 08:22:51;;;;;;;0.60;0.50;;;;;;;;;;5053550;28;20054;-60
2023/08/29 08:25:17;;;;;;;1.58;0.70;;;;;;;;;;5059684;28;20538;-60
2023/08/29 08:27:44;;;;;;;0.90;0.70;;;;;;;;;;5055737;28;20075;-60
2023/08/29 08:30:10;;;;;;;1.75;0.85;;;;;;;;;;5055769;28;20321;-60
2023/08/29 08:32:37;;;;;;;0.68;0.60;;;;;;;;;;5050932;28;20056;-60
2023/08/29 08:35:05;;;;;;;1.27;0.63;;;;;;;;;;5052500;28;20252;-60
2023/08/29 08:37:32;;;;;;;1.02;0.63;;;;;;;;;;5052908;28;20051;-61
2023/08/29 08:39:59;;;;;;;1.05;0.60;;;;;;;;;;5050853;28;20347;-60
2023/08/29 08:42:25;;;;;;;0.82;0.60;;;;;;;;;;5044628;28;20229;-60
2023/08/29 08:44:51;;;;;;;2.03;0.80;;;;;;;;;;5046142;28;20067;-60
2023/08/29 08:47:17;;;;;;;0.63;0.63;;;;;;;;;;5049784;28;20190;-61
2023/08/29 08:49:44;;;;;;;1.40;0.70;;;;;;;;;;5050730;28;20040;-61
2023/08/29 08:52:11;;;;;;;1.13;0.70;;;;;;;;;;5045318;28;20681;-61
2023/08/29 08:54:38;;;;;;;1.33;0.60;;;;;;;;;;5050276;28;20350;-60
2023/08/29 08:57:04;;;;;;;1.13;0.80;;;;;;;;;;5048690;28;20448;-61
2023/08/29 08:59:30;;;;;;;1.85;0.68;;;;;;;;;;5047928;28;20463;-61
2023/08/29 09:01:57;;;;;;;2.10;0.80;;;;;;;;;;5057632;28;20036;-60
2023/08/29 09:04:23;;;;;;;1.20;0.90;;;;;;;;;;5052187;28;20036;-63
2023/08/29 09:06:49;;;;;;;0.75;0.70;;;;;;;;;;5054268;28;20127;-60
2023/08/29 09:09:20;;;;;;;0.95;0.65;;;;;;;;;;5060180;28;20298;-61
2023/08/29 09:12:12;;;;;;;0.75;0.60;;;;;;;;;;5054652;28;20036;-61
2023/08/29 09:14:41;;;;;;;0.52;0.40;;;;;;;;;;5045275;28;20102;-60
2023/08/29 09:17:08;;;;;;;0.70;0.50;;;;;;;;;;5059600;28;20048;-61
2023/08/29 09:19:35;;;;;;;2.28;0.80;;;;;;;;;;5055799;28;20601;-61
2023/08/29 09:22:01;;;;;;;1.10;0.80;;;;;;;;;;5061819;28;20051;-61
2023/08/29 09:24:34;;;;;;;0.73;0.70;;;;;;;;;;5056439;28;20363;-60
2023/08/29 09:27:00;;;;;;;;;;;;;;;;;;5049883;28;20055;-60
2023/08/29 09:29:27;;;;;;;2.22;0.65;;;;;;;;;;5059992;28;19982;-60
2023/08/29 09:31:53;;;;;;;1.17;0.60;;;;;;;;;;5060716;28;20317;-60
2023/08/29 09:34:23;;;;;;;2.00;0.95;;;;;;;;;;5059730;28;20312;-61
2023/08/29 09:36:50;;;;;;;1.20;0.70;;;;;;;;;;5061502;28;20246;-60
2023/08/29 09:39:16;;;;;;;0.65;0.65;;;;;;;;;;5052288;28;20043;-61
2023/08/29 09:41:42;;;;;;;0.80;0.80;;;;;;;;;;5050286;28;20330;-61
2023/08/29 09:44:12;;;;;;;1.75;0.90;;;;;;;;;;5051862;28;20033;-60
2023/08/29 09:46:43;;;;;;;1.00;0.65;;;;;;;;;;5057173;28;20621;-61
2023/08/29 09:49:09;;;;;;;1.02;0.88;;;;;;;;;;5051375;28;20259;-61
2023/08/29 09:51:36;;;;;;;0.50;0.50;;;;;;;;;;5050032;28;20545;-61
2023/08/29 09:54:06;;;;;;;1.17;0.70;;;;;;;;;;5051071;28;20048;-61
2023/08/29 09:56:33;;;;;;;1.05;0.80;;;;;;;;;;5052765;28;20229;-61
2023/08/29 09:59:00;;;;;;;1.80;0.95;;;;;;;;;;5051856;28;20273;-61
2023/08/29 10:01:27;;;;;;;0.82;0.60;;;;;;;;;;5056948;28;20233;-59
2023/08/29 10:03:53;;;;;;;0.88;0.70;;;;;;;;;;5067480;28;20139;-61
2023/08/29 10:06:20;;;;;;;1.25;0.80;;;;;;;;;;5052441;28;20242;-61
2023/08/29 10:08:51;;;;;;;1.10;0.82;;;;;;;;;;5057691;28;20132;-61
2023/08/29 10:11:21;;;;;;;2.38;1.00;;;;;;;;;;5053255;28;20223;-61
2023/08/29 10:13:48;;;;;;;1.42;0.80;;;;;;;;;;5062873;28;20067;-61
2023/08/29 10:16:15;;;;;;;1.58;0.88;;;;;;;;;;5055080;28;20450;-61
2023/08/29 10:18:42;;;;;;;0.90;0.70;;;;;;;;;;5047332;28;20392;-61
2023/08/29 10:21:09;;;;;;;1.17;0.80;;;;;;;;;;5054999;28;20048;-61
2023/08/29 10:23:36;;;;;;;2.83;0.77;;;;;;;;;;5054323;28;20032;-61
2023/08/29 10:26:02;;;;;;;0.50;0.50;;;;;;;;;;5053621;28;20530;-61
2023/08/29 10:28:29;;;;;;;0.98;0.80;;;;;;;;;;5051073;28;20125;-61
2023/08/29 10:30:59;;;;;;;0.80;0.80;;;;;;;;;;5049520;28;20105;-61
2023/08/29 10:33:26;;;;;;;1.30;0.88;;;;;;;;;;5058509;28;20051;-61
2023/08/29 10:35:52;;;;;;;2.13;1.25;;;;;;;;;;5056815;28;20036;-61
2023/08/29 10:38:19;;;;;;;1.60;1.02;;;;;;;;;;5060484;28;20282;-61
2023/08/29 10:40:48;;;;;;;1.38;0.80;;;20.70;93.20;;;;;;5053089;28;20481;-61
2023/08/29 10:43:21;;;;;;;1.08;0.80;;;21.10;96.70;;;;;;5051884;28;20294;-61
2023/08/29 10:45:51;;;;;;;1.10;0.80;;;;;;;;;;5054488;28;20048;-61
2023/08/29 10:48:17;;;;;;;1.38;0.93;;;;;;;;;;5053479;28;20044;-60
2023/08/29 10:50:48;;;;;;;1.45;0.85;;;;;;;;;;5044889;28;20217;-61
2023/08/29 10:53:21;;;;;;;1.55;1.02;;;;;;;;;;5055005;28;20044;-61
2023/08/29 10:56:03;;;;;;;1.20;0.90;;;;;;;;;;5056152;28;20178;-61
2023/08/29 10:58:34;;;;;;;1.33;1.00;;;;;;;;;;5057844;28;20487;-61
2023/08/29 11:01:01;;;;;;;1.50;0.90;;;;;;;;;;5054515;28;20072;-62
2023/08/29 11:03:51;;;;;;;0.85;0.73;;;;;;;;;;5050991;28;20048;-61
2023/08/29 11:06:21;;;;;;;1.52;1.15;;;;;;;;;;5061560;28;20033;-61
2023/08/29 11:08:48;;;;;;;1.42;1.10;;;;;;;;;;5051796;28;20055;-61
2023/08/29 11:11:21;;;;;;;1.35;0.85;;;;;;;;;;5047382;28;20329;-61
2023/08/29 11:13:57;;;;;;;1.83;1.30;;;;;;;;;;5047577;28;20151;-61
2023/08/29 11:16:23;;;;;;;2.67;1.10;;;21.00;96.60;;;;;;5051114;28;20048;-61
2023/08/29 11:18:59;;;;;;;1.05;0.95;;;;;;;;;;5053816;28;20266;-62
2023/08/29 11:21:26;;;;;;;1.02;0.90;;;;;;;;;;5055784;28;20492;-61
2023/08/29 11:23:53;;;;;;;1.23;0.80;;;;;;;;;;5048221;28;20036;-61
2023/08/29 11:26:19;;;;;;;1.58;1.02;;;;;;;;;;5048475;28;20049;-61
2023/08/29 11:28:47;;;;;;;1.00;0.90;;;;;;;;;;5041135;28;20576;-61
2023/08/29 11:31:13;;;;;;;2.35;0.82;;;;;;;;;;5049077;28;20473;-61
2023/08/29 11:33:40;;;;;;;1.50;0.90;;;;;;;;;;5050717;28;20132;-61
2023/08/29 11:36:07;;;;;;;1.40;1.02;;;;;;;;;;5030271;28;20235;-61
2023/08/29 11:38:33;;;;;;;1.40;0.95;;;21.90;96.40;;;;;;5051274;28;20040;-61
2023/08/29 11:41:02;;;;;;;2.65;1.17;;;22.70;95.40;;;;;;5051061;28;20032;-60
2023/08/29 11:43:30;;;;;;;2.45;1.40;;;22.80;95.30;;;;;;5042713;28;20112;-60
2023/08/29 11:46:01;;;;;;;2.80;1.02;;;22.80;95.20;;;;;;5044929;28;20626;-60
2023/08/29 11:48:31;;;;;;;2.47;1.00;;;22.80;95.00;;;;;;5037520;28;20048;-62
2023/08/29 11:51:05;;;;;;;1.60;1.25;;;22.90;94.90;;;;;;5039752;28;20238;-61
2023/08/29 11:53:36;;;;;;;1.20;0.82;;;22.90;94.80;;;;;;5038469;28;20110;-61
2023/08/29 11:56:09;;;;;;;1.25;0.88;;;22.90;94.70;;;;;;5048952;28;20525;-61
2023/08/29 11:58:37;;;;;;;1.08;0.95;;;22.90;94.70;;;;;;5034108;28;20259;-60
2023/08/29 12:01:04;;;;;;;1.13;0.98;;;23.00;94.70;;;;;;5051494;28;20273;-60
2023/08/29 12:03:33;;;;;;;1.35;0.98;;;23.10;94.70;;;;;;5048623;28;20420;-61
2023/08/29 12:05:59;;;;;;;1.50;1.15;;;23.10;94.60;;;;;;5049354;28;20552;-60
2023/08/29 12:08:36;;;;;;;1.10;0.95;;;23.10;94.60;;;;;;5053528;28;20040;-59
2023/08/29 12:11:02;;;;;;;2.38;1.50;;;23.20;94.50;;;;;;5051263;28;20036;-60
2023/08/29 12:13:28;;;;;;;2.00;1.27;;;23.20;94.50;;;;;;5045070;28;20075;-60
2023/08/29 12:15:53;;;;;;;1.17;0.85;;;23.20;94.50;;;;;;5051849;28;20114;-60
2023/08/29 12:18:24;;;;;;;3.60;1.13;;;23.30;94.40;;;;;;5046994;28;20244;-61
2023/08/29 12:20:51;;;;;;;1.63;1.10;;;23.30;94.40;;;;;;5051278;28;20056;-61
2023/08/29 12:23:27;;;;;;;2.70;0.90;;;23.30;94.40;;;;;;5048762;28;20037;-61
2023/08/29 12:25:55;;;;;;;2.00;1.15;;;23.30;94.20;;;;;;5049880;28;20130;-61
2023/08/29 12:28:23;;;;;;;1.45;1.00;;;23.40;94.30;;;;;;5049529;28;20261;-61
2023/08/29 12:30:49;;;;;;;1.58;1.20;;;23.40;94.20;;;;;;5053615;28;20545;-61
2023/08/29 12:33:15;;;;;;;2.55;1.40;;;23.40;94.20;;;;;;5058719;28;20182;-60
2023/08/29 12:35:41;;;;;;;1.25;0.90;;;23.40;94.10;;;;;;5048691;28;20240;-61
2023/08/29 12:38:07;;;;;;;4.07;1.13;;;23.40;94.00;;;;;;5049534;28;20044;-61
2023/08/29 12:40:33;;;;;;;1.67;1.52;;;23.40;94.00;;;;;;5044215;28;20562;-61
2023/08/29 12:42:59;;;;;;;1.88;1.00;;;23.40;93.90;;;;;;5047785;28;20036;-61
2023/08/29 12:45:24;;;;;;;2.28;1.00;;;23.40;93.80;;;;;;5044578;28;20202;-61
2023/08/29 12:47:51;;;;;;;1.67;1.10;;;23.40;93.80;;;;;;5042291;28;20096;-61
2023/08/29 12:50:17;;;;;;;1.52;1.10;;;;;;;;;;5033731;28;20275;-60
2023/08/29 12:52:43;;;;;;;1.63;1.23;;;;;;;;;;5044532;28;20153;-61
2023/08/29 12:55:11;;;;;;;2.53;1.10;;;23.40;93.80;;;;;;5042421;28;20199;-61
2023/08/29 12:57:37;;;;;;;1.33;1.00;;;23.30;93.70;;;;;;5044711;28;20133;-60
2023/08/29 13:00:07;;;;;;;1.60;1.10;;;23.40;93.70;;;;;;5032486;28;20033;-61
2023/08/29 13:02:33;;;;;;;1.23;1.05;;;23.30;93.60;;;;;;5044146;28;20044;-61
2023/08/29 13:04:59;;;;;;;1.95;1.15;;;23.30;93.60;;;;;;5049796;28;20117;-61
2023/08/29 13:07:25;;;;;;;3.63;1.40;;;23.30;93.40;;;;;;5049481;28;20568;-61
2023/08/29 13:09:52;;;;;;;0.95;0.80;;;23.30;93.30;;;;;;5057118;28;20515;-61
2023/08/29 13:12:21;;;;;;;2.80;1.05;;;23.30;93.30;;;;;;5054179;28;20685;-61
2023/08/29 13:14:47;;;;;;;2.85;1.25;;;23.30;93.20;;;;;;5050369;28;20044;-60
2023/08/29 13:17:13;;;;;;;1.85;1.20;;;23.30;93.00;;;;;;5063193;28;20052;-61
2023/08/29 13:19:39;;;;;;;2.13;1.15;;;23.30;92.90;;;;;;5050522;28;20040;-61
2023/08/29 13:22:08;;;;;;;1.85;1.17;;;23.20;92.80;;;;;;5051535;28;20901;-61
2023/08/29 13:24:35;;;;;;;1.35;0.90;;;23.20;92.80;;;;;;5056290;28;20529;-61
2023/08/29 13:27:01;;;;;;;1.85;1.30;;;23.10;92.70;;;;;;5044422;28;20047;-61
2023/08/29 13:29:27;;;;;;;1.85;1.20;;;23.10;92.60;;;;;;5027134;28;20048;-60
2023/08/29 13:31:53;;;;;;;2.28;1.00;;;23.10;92.60;;;;;;5049146;28;20188;-61
2023/08/29 13:34:19;;;;;;;3.65;1.38;;;23.10;92.70;;;;;;5046706;28;20188;-61
2023/08/29 13:36:45;;;;;;;1.13;1.00;;;23.10;92.60;;;;;;5056761;28;20207;-61
2023/08/29 13:39:11;;;;;;;2.40;1.10;;;23.00;92.70;;;;;;5057732;28;20051;-61
2023/08/29 13:41:36;;;;;;;1.42;1.05;;;23.00;92.60;;;;;;5049347;28;20123;-61
2023/08/29 13:44:04;;;;;;;1.58;0.95;;;23.10;92.60;;;;;;5051541;28;20073;-61
2023/08/29 13:46:30;;;;;;;1.52;1.00;;;23.00;92.60;;;;;;5045424;28;20052;-61
2023/08/29 13:48:56;;;;;;;3.00;1.58;;;23.00;92.60;;;;;;5047847;28;20106;-61
2023/08/29 13:51:22;;;;;;;1.20;1.00;;;23.00;92.70;;;;;;5030776;28;20436;-61
2023/08/29 13:53:48;;;;;;;1.85;1.10;;;23.00;92.60;;;;;;5055776;28;20266;-61
2023/08/29 13:56:14;;;;;;;2.25;1.35;;;23.00;92.80;;;;;;5051026;28;20051;-61
2023/08/29 13:58:40;;;;;;;1.85;1.13;;;23.10;92.70;;;;;;5030653;28;20057;-61
2023/08/29 14:01:05;;;;;;;2.60;1.35;;;23.10;92.70;;;;;;5050350;28;20337;-61
2023/08/29 14:03:31;;;;;;;1.52;1.10;;;23.00;92.70;;;;;;5041376;28;20060;-61
2023/08/29 14:05:58;;;;;;;2.33;1.20;;;23.10;92.80;;;;;;5042534;28;20041;-61
2023/08/29 14:08:24;;;;;;;1.27;1.05;;;23.10;92.80;;;;;;5050250;28;20285;-61
2023/08/29 14:10:51;;;;;;;2.60;1.33;;;23.10;92.90;;;;;;5048634;28;20553;-62
2023/08/29 14:13:16;;;;;;;1.30;0.98;;;23.20;92.90;;;;;;5042635;28;20163;-61
2023/08/29 14:15:42;;;;;;;1.45;1.00;;;23.30;92.90;;;;;;5046084;28;20036;-61
2023/08/29 14:18:08;;;;;;;0.82;0.80;;;23.40;92.90;;;;;;5048485;28;20129;-62